Crieff, United Kingdom
Current Conditions -  °F | °C
As of 8:20 PM on Friday 24 Oct 2014 (Local Time) from EGPN Reporting Station
Scattered Clouds Scattered Clouds  
Wind Chill: 52°   Ceiling: Unl
Heat Index: 52°   Visibility: 6mi
Dew Point: 46°   Wind: 18mph
Humidity: 82%   Direction: 230°SW
Pressure: 29.68"   Gusts: NA
Location:  56.37°N, 3.84°W
Report Text: EGPN 241920Z 23016KT 9999 FEW020 SCT030 11/08 Q1005
Loading
Personal Weather Stations






























Interactive Weather Map New forecast layout! Learn more

10-Day Weather Forecast

Advertisements
Track Severe Weather on mobile